This is the latest recevied weather packets stored in our database for station/object KO6TH-15. If no packets are shown the sender has not sent any weather packets the latest 1 day(s).
| Time | Temp. | Humidity | Pressure | Rain* | Wind** | Luminosity | Snow |
|---|---|---|---|---|---|---|---|
| 1836274265 | 21.67° C | 78% | 0 hPa | 0 mm | 0 m/s | - | - |
| 1836274115 | 21.11° C | 79% | 0 hPa | 0 mm | 0.45 m/s, 0° | - | - |
| 1778035970 | 14.44° C | 85% | 0 hPa | 0 mm | 0 m/s | - | - |
| 1778035340 | 15° C | 84% | 0 hPa | 0 mm | 0.89 m/s, 0° | - | - |
| 1778034710 | 15° C | 84% | 0 hPa | 0 mm | 0.89 m/s, 0° | - | - |
| 1778034080 | 15.56° C | 83% | 0 hPa | 0 mm | 0 m/s | - | - |
| 1778033450 | 15.56° C | 83% | 0 hPa | 0 mm | 0.89 m/s, 0° | - | - |
| 1778032820 | 15.56° C | 84% | 0 hPa | 0 mm | 0.45 m/s, 0° | - | - |
| 1778032190 | 15.56° C | 82% | 0 hPa | 0 mm | 0.45 m/s, 0° | - | - |
| 1778031560 | 16.11° C | 81% | 0 hPa | 0 mm | 0.45 m/s, 0° | - | - |
| 1778030960 | 16.11° C | 80% | 0 hPa | 0 mm | 0.89 m/s, 0° | - | - |
| 1778030330 | 16.11° C | 81% | 0 hPa | 0 mm | 0.45 m/s, 0° | - | - |
| 1778029700 | 16.11° C | 80% | 0 hPa | 0 mm | 0.45 m/s, 0° | - | - |
| 1778029100 | 16.11° C | 80% | 0 hPa | 0 mm | 0.89 m/s, 0° | - | - |
| 1778028470 | 16.67° C | 78% | 0 hPa | 0 mm | 1.34 m/s, 0° | - | - |
| 1778027840 | 16.67° C | 76% | 0 hPa | 0 mm | 0.45 m/s, 0° | - | - |
| 1778027210 | 16.67° C | 76% | 0 hPa | 0 mm | 0 m/s | - | - |
| 1778026610 | 16.67° C | 78% | 0 hPa | 0 mm | 0.45 m/s, 0° | - | - |
| 1778025980 | 16.11° C | 79% | 0 hPa | 0 mm | 0.45 m/s, 0° | - | - |
| 1778025350 | 16.11° C | 80% | 0 hPa | 0 mm | 0 m/s | - | - |
| 1778024720 | 15° C | 84% | 0 hPa | 0 mm | 0.45 m/s, 0° | - | - |
| 1778024090 | 15° C | 83% | 0 hPa | 0 mm | 0.45 m/s, 0° | - | - |
| 1778023490 | 15.56° C | 83% | 0 hPa | 0 mm | 0.89 m/s, 0° | - | - |
| 1778022860 | 15° C | 83% | 0 hPa | 0 mm | 0.45 m/s, 0° | - | - |
| 1778022262 | 15.56° C | 82% | 0 hPa | 0 mm | 0.89 m/s, 0° | - | - |
* Rain latest hour (hover to see other rain measurements)
** Current wind speed in m/s (hover to see current wind gust speed)